createdAt,value
2022-08-02T00:00:03.276Z,0.01
2022-08-02T00:01:03.066Z,0.02
2022-08-02T00:02:03.590Z,0.02
2022-08-02T00:03:03.887Z,0.02
2022-08-02T00:04:04.145Z,0.02
2022-08-02T00:05:03.735Z,0.02
2022-08-02T00:06:03.621Z,0.02
2022-08-02T00:07:03.389Z,0.02
2022-08-02T00:08:02.958Z,0.02
2022-08-02T00:09:03.286Z,0.02
2022-08-02T00:10:03.546Z,0.01
2022-08-02T00:11:03.084Z,0.02
2022-08-02T00:12:03.313Z,0.02
2022-08-02T00:13:03.587Z,0.02
2022-08-02T00:14:03.585Z,0.01
2022-08-02T00:15:03.815Z,0.02
2022-08-02T00:16:03.282Z,0.02
2022-08-02T00:17:03.399Z,0.02
2022-08-02T00:18:02.988Z,0.02
2022-08-02T00:19:03.171Z,0.02
2022-08-02T00:20:02.767Z,0.02
2022-08-02T00:21:03.270Z,0.02
2022-08-02T00:22:03.442Z,0.03
2022-08-02T00:23:03.708Z,0.02
2022-08-02T00:24:29.190Z,0.03
2022-08-02T00:25:03.512Z,0.02
2022-08-02T00:26:03.751Z,0.02
2022-08-02T00:27:03.039Z,0.01
2022-08-02T00:28:03.306Z,0.01
2022-08-02T00:29:03.141Z,0.02
2022-08-02T00:30:03.060Z,0.02
2022-08-02T00:31:03.528Z,0.02
2022-08-02T00:32:03.107Z,0.02
2022-08-02T00:33:03.433Z,0.02
2022-08-02T00:34:09.073Z,0.02
2022-08-02T00:35:03.262Z,0.02
2022-08-02T00:36:03.466Z,0.02
2022-08-02T00:37:03.725Z,0.02
2022-08-02T00:38:04.079Z,0.02
2022-08-02T00:39:03.651Z,0.02
2022-08-02T00:40:04.014Z,0.02
2022-08-02T00:41:03.660Z,0.02
2022-08-02T00:42:03.937Z,0.02
2022-08-02T00:43:04.035Z,0.02
2022-08-02T00:44:03.736Z,0.01
2022-08-02T00:45:04.287Z,0.02
2022-08-02T00:46:04.137Z,0.02
2022-08-02T00:47:03.504Z,0.02
2022-08-02T00:48:03.800Z,0.02
2022-08-02T00:49:03.458Z,0.02
2022-08-02T00:50:03.697Z,0.01
2022-08-02T00:51:03.299Z,0.02
2022-08-02T00:52:03.661Z,0.02
2022-08-02T00:53:03.930Z,0.02
2022-08-02T00:54:03.512Z,0.02
2022-08-02T00:55:03.874Z,0.01
2022-08-02T00:56:03.452Z,0.02
2022-08-02T00:57:03.720Z,0.02
2022-08-02T00:58:03.898Z,0.02
2022-08-02T00:59:03.916Z,0.02
2022-08-02T01:00:03.523Z,0.02
2022-08-02T01:01:03.980Z,0.02
2022-08-02T01:02:03.361Z,0.02
2022-08-02T01:03:03.267Z,0.02
2022-08-02T01:04:03.619Z,0.03
2022-08-02T01:05:03.197Z,0.03
2022-08-02T01:06:11.604Z,0.02
2022-08-02T01:07:03.811Z,0.02
2022-08-02T01:08:04.167Z,0.01
2022-08-02T01:09:03.798Z,0.02
2022-08-02T01:10:04.073Z,0.02
2022-08-02T01:11:03.732Z,0.02
2022-08-02T01:12:04.076Z,0.01
2022-08-02T01:13:03.977Z,0.02
2022-08-02T01:14:03.850Z,0.02
2022-08-02T01:15:04.176Z,0.03
2022-08-02T01:16:03.825Z,0.02
2022-08-02T01:17:04.081Z,0.02
2022-08-02T01:18:04.192Z,0.02
2022-08-02T01:19:03.864Z,0.02
2022-08-02T01:20:04.098Z,0.02
2022-08-02T01:21:03.953Z,0.02
2022-08-02T01:22:03.388Z,0.02
2022-08-02T01:23:03.286Z,0.02
2022-08-02T01:24:03.608Z,0.01
2022-08-02T01:25:03.324Z,0.02
2022-08-02T01:26:03.587Z,0.02
2022-08-02T01:27:03.752Z,0.02
2022-08-02T01:28:03.965Z,0.02
2022-08-02T01:29:03.535Z,0.02
2022-08-02T01:30:03.864Z,0.02
2022-08-02T01:31:03.910Z,0.02
2022-08-02T01:32:03.770Z,0.02
2022-08-02T01:33:04.107Z,0.02
2022-08-02T01:34:03.901Z,0.01
2022-08-02T01:35:04.256Z,0.03
2022-08-02T01:36:04.412Z,0.02
2022-08-02T01:37:03.816Z,0.02
2022-08-02T01:38:03.944Z,0.02
2022-08-02T01:39:02.924Z,0.02
2022-08-02T01:40:02.937Z,0.02
2022-08-02T01:41:02.794Z,0.02
2022-08-02T01:42:03.387Z,0.03
2022-08-02T01:43:04.779Z,0.02
2022-08-02T01:44:04.227Z,0.02
2022-08-02T01:45:03.357Z,0.02
2022-08-02T01:46:03.337Z,0.02
2022-08-02T01:47:03.618Z,0.02
2022-08-02T01:48:02.905Z,0.01
2022-08-02T01:49:03.092Z,0.02
2022-08-02T01:50:02.967Z,0.02
2022-08-02T01:51:02.895Z,0.01
2022-08-02T01:52:04.198Z,0.02
2022-08-02T01:53:03.404Z,0.02
2022-08-02T01:54:03.615Z,0.02
2022-08-02T01:55:03.462Z,0.01
2022-08-02T01:56:03.421Z,0.02
2022-08-02T01:57:03.080Z,0.02
2022-08-02T01:58:03.693Z,0.02
2022-08-02T01:59:03.434Z,0.02
2022-08-02T02:00:03.654Z,0.02
2022-08-02T02:01:03.337Z,0.02
2022-08-02T02:02:03.483Z,0.01
2022-08-02T02:03:03.051Z,0.02
2022-08-02T02:04:02.908Z,0.02
2022-08-02T02:05:03.193Z,0.02
2022-08-02T02:06:03.252Z,0.02
2022-08-02T02:07:03.543Z,0.02
2022-08-02T02:08:03.164Z,0.01
2022-08-02T02:09:02.886Z,0.02
2022-08-02T02:10:03.150Z,0.02
2022-08-02T02:12:05.885Z,0.02
2022-08-02T02:12:09.653Z,0.02
2022-08-02T02:13:02.237Z,0.02
2022-08-02T02:14:02.700Z,0.01
2022-08-02T02:15:02.932Z,0.02
2022-08-02T02:16:02.654Z,0.02
2022-08-02T02:17:03.335Z,0.02
2022-08-02T02:18:12.951Z,0.02
2022-08-02T02:19:02.523Z,0.02
2022-08-02T02:20:03.203Z,0.02
2022-08-02T02:21:03.422Z,0.02
2022-08-02T02:22:02.689Z,0.02
2022-08-02T02:23:03.125Z,0.01
2022-08-02T02:24:02.411Z,0.02
2022-08-02T02:25:02.269Z,0.02
2022-08-02T02:26:03.834Z,0.02
2022-08-02T02:27:02.861Z,0.02
2022-08-02T02:28:02.385Z,0.02
2022-08-02T02:29:02.569Z,0.02
2022-08-02T02:30:02.905Z,0.02
2022-08-02T02:31:02.545Z,0.02
2022-08-02T02:32:02.806Z,0.02
2022-08-02T02:33:03.183Z,0.02
2022-08-02T02:34:03.441Z,0.02
2022-08-02T02:35:03.015Z,0.02
2022-08-02T02:36:03.293Z,0.02
2022-08-02T02:37:02.884Z,0.02
2022-08-02T02:38:03.088Z,0.02
2022-08-02T02:39:03.464Z,0.01
2022-08-02T02:40:02.990Z,0.02
2022-08-02T02:41:03.259Z,0.02
2022-08-02T02:42:02.492Z,0.02
2022-08-02T02:43:02.632Z,0.02
2022-08-02T02:44:02.899Z,0.02
2022-08-02T02:45:03.183Z,0.02
2022-08-02T02:46:02.747Z,0.02
2022-08-02T02:47:03.019Z,0.02
2022-08-02T02:48:03.505Z,0.02
2022-08-02T02:49:03.172Z,0.02
2022-08-02T02:50:03.509Z,0.02
2022-08-02T02:51:03.057Z,0.02
2022-08-02T02:52:02.380Z,0.02
2022-08-02T02:53:02.611Z,0.02
2022-08-02T02:54:32.009Z,0.02
2022-08-02T02:55:02.526Z,0.02
2022-08-02T02:56:02.922Z,0.02
2022-08-02T02:57:02.743Z,0.02
2022-08-02T02:58:02.619Z,0.02
2022-08-02T02:59:02.860Z,0.01
2022-08-02T03:00:02.525Z,0.02
2022-08-02T03:01:02.999Z,0.02
2022-08-02T03:02:03.420Z,0.02
2022-08-02T03:03:03.662Z,0.02
2022-08-02T03:04:03.256Z,0.01
2022-08-02T03:05:03.601Z,0.02
2022-08-02T03:06:03.172Z,0.02
2022-08-02T03:07:03.704Z,0.02
2022-08-02T03:08:03.973Z,0.02
2022-08-02T03:09:04.247Z,0.02
2022-08-02T03:10:03.820Z,0.02
2022-08-02T03:11:04.498Z,0.02
2022-08-02T03:12:03.891Z,0.02
2022-08-02T03:13:03.435Z,0.02
2022-08-02T03:14:03.697Z,0.02
2022-08-02T03:15:03.257Z,0.03
2022-08-02T03:16:03.806Z,0.02
2022-08-02T03:17:02.912Z,0.02
2022-08-02T03:18:02.795Z,0.02
2022-08-02T03:19:02.622Z,0.03
2022-08-02T03:20:02.442Z,0.02
2022-08-02T03:21:02.368Z,0.02
2022-08-02T03:22:03.681Z,0.02
2022-08-02T03:23:03.950Z,0.02
2022-08-02T03:24:04.021Z,0.03
2022-08-02T03:25:03.710Z,0.02
2022-08-02T03:26:03.484Z,0.02
2022-08-02T03:27:02.964Z,0.02
2022-08-02T03:28:02.918Z,0.02
2022-08-02T03:29:10.004Z,0.03
2022-08-02T03:30:03.537Z,0.02
2022-08-02T03:31:03.544Z,0.02
2022-08-02T03:32:03.478Z,0.02
2022-08-02T03:33:03.688Z,0.02
2022-08-02T03:34:03.788Z,0.02
2022-08-02T03:35:04.411Z,0.02
2022-08-02T03:36:03.896Z,0.02
2022-08-02T03:37:02.859Z,0.02
2022-08-02T03:38:02.938Z,0.02
2022-08-02T03:39:03.260Z,0.02
2022-08-02T03:40:03.051Z,0.02
2022-08-02T03:41:03.087Z,0.01
2022-08-02T03:42:03.516Z,0.02
2022-08-02T03:43:03.362Z,0.02
2022-08-02T03:44:02.966Z,0.02
2022-08-02T03:45:08.110Z,0.02
2022-08-02T03:46:03.652Z,0.03
2022-08-02T03:47:03.650Z,0.02
2022-08-02T03:48:30.494Z,0.02
2022-08-02T03:49:03.843Z,0.03
2022-08-02T03:50:03.620Z,0.02
2022-08-02T03:51:03.570Z,0.03
2022-08-02T03:52:03.530Z,0.03
2022-08-02T03:53:03.445Z,0.03
2022-08-02T03:54:03.466Z,0.04
2022-08-02T03:55:04.124Z,0.03
2022-08-02T03:56:03.832Z,0.04
2022-08-02T03:57:02.973Z,0.03
2022-08-02T03:58:03.143Z,0.04
2022-08-02T03:59:03.024Z,0.04
2022-08-02T04:00:03.123Z,0.03
2022-08-02T04:01:02.732Z,0.04
2022-08-02T04:02:02.634Z,0.03
2022-08-02T04:03:03.034Z,0.04
2022-08-02T04:04:03.331Z,0.05
2022-08-02T04:05:03.009Z,0.04
2022-08-02T04:06:04.266Z,0.04
2022-08-02T04:07:02.978Z,0.04
2022-08-02T04:08:37.270Z,0.05
2022-08-02T04:09:02.980Z,0.05
2022-08-02T04:10:02.652Z,0.05
2022-08-02T04:11:03.119Z,0.06
2022-08-02T04:12:03.209Z,0.05
2022-08-02T04:13:03.063Z,0.05
2022-08-02T04:14:03.307Z,0.06
2022-08-02T04:15:03.134Z,0.05
2022-08-02T04:16:02.849Z,0.06
2022-08-02T04:17:03.014Z,0.07
2022-08-02T04:18:02.725Z,0.06
2022-08-02T04:19:02.403Z,0.08
2022-08-02T04:20:03.011Z,0.07
2022-08-02T04:21:02.687Z,0.08
2022-08-02T04:22:03.228Z,0.08
2022-08-02T04:23:03.019Z,0.08
2022-08-02T04:24:02.818Z,0.07
2022-08-02T04:25:02.935Z,0.07
2022-08-02T04:26:02.656Z,0.07
2022-08-02T04:27:19.770Z,0.08
2022-08-02T04:28:17.430Z,0.08
2022-08-02T04:29:02.924Z,0.08
2022-08-02T04:30:03.407Z,0.08
2022-08-02T04:31:03.103Z,0.08
2022-08-02T04:32:03.569Z,0.08
2022-08-02T04:33:03.274Z,0.08
2022-08-02T04:34:03.660Z,0.09
2022-08-02T04:35:20.000Z,0.09
2022-08-02T04:36:03.647Z,0.10
2022-08-02T04:37:03.191Z,0.11
2022-08-02T04:38:09.647Z,0.11
2022-08-02T04:39:02.648Z,0.12
2022-08-02T04:40:03.127Z,0.13
2022-08-02T04:41:02.894Z,0.14
2022-08-02T04:42:03.340Z,0.16
2022-08-02T04:43:03.070Z,0.17
2022-08-02T04:44:02.860Z,0.18
2022-08-02T04:45:03.283Z,0.18
2022-08-02T04:46:03.099Z,0.19
2022-08-02T04:47:06.771Z,0.20
2022-08-02T04:48:05.801Z,0.21
2022-08-02T04:49:03.303Z,0.21
2022-08-02T04:50:03.508Z,0.21
2022-08-02T04:51:03.299Z,0.22
2022-08-02T04:52:03.733Z,0.21
2022-08-02T04:53:03.417Z,0.23
2022-08-02T04:54:06.319Z,0.22
2022-08-02T04:55:03.803Z,0.20
2022-08-02T04:56:03.734Z,0.20
2022-08-02T04:57:03.687Z,0.20
2022-08-02T04:58:13.571Z,0.19
2022-08-02T04:59:04.017Z,0.17
2022-08-02T05:00:03.828Z,0.16
2022-08-02T05:01:04.293Z,0.15
2022-08-02T05:02:03.254Z,0.15
2022-08-02T05:03:03.012Z,0.14
2022-08-02T05:04:03.491Z,0.15
2022-08-02T05:05:08.242Z,0.16
2022-08-02T05:06:03.048Z,0.16
2022-08-02T05:07:03.609Z,0.16
2022-08-02T05:08:03.679Z,0.17
2022-08-02T05:09:04.091Z,0.19
2022-08-02T05:10:03.811Z,0.20
2022-08-02T05:11:03.618Z,0.22
2022-08-02T05:12:03.119Z,0.22
2022-08-02T05:13:03.527Z,0.22
2022-08-02T05:14:02.871Z,0.23
2022-08-02T05:15:03.508Z,0.23
2022-08-02T05:16:03.430Z,0.23
2022-08-02T05:17:03.207Z,0.25
2022-08-02T05:18:03.622Z,0.28
2022-08-02T05:19:03.645Z,0.30
2022-08-02T05:20:03.457Z,0.30
2022-08-02T05:21:03.272Z,0.30
2022-08-02T05:22:02.800Z,0.28
2022-08-02T05:23:03.269Z,0.27
2022-08-02T05:24:02.964Z,0.27
2022-08-02T05:25:02.882Z,0.28
2022-08-02T05:26:02.983Z,0.28
2022-08-02T05:27:03.301Z,0.29
2022-08-02T05:28:06.117Z,0.30
2022-08-02T05:29:03.503Z,0.32
2022-08-02T05:30:03.307Z,0.33
2022-08-02T05:31:03.744Z,0.36
2022-08-02T05:32:03.020Z,0.40
2022-08-02T05:33:03.451Z,0.40
2022-08-02T05:34:03.371Z,0.40
2022-08-02T05:35:03.102Z,0.40
2022-08-02T05:36:03.439Z,0.43
2022-08-02T05:37:03.179Z,0.46
2022-08-02T05:38:03.489Z,0.47
2022-08-02T05:39:04.971Z,0.47
2022-08-02T05:40:03.133Z,0.48
2022-08-02T05:41:03.690Z,0.48
2022-08-02T05:42:03.861Z,0.52
2022-08-02T05:43:03.639Z,0.54
2022-08-02T05:44:04.124Z,0.54
2022-08-02T05:45:03.828Z,0.53
2022-08-02T05:46:03.945Z,0.54
2022-08-02T05:47:03.813Z,0.58
2022-08-02T05:48:04.284Z,0.60
2022-08-02T05:49:04.351Z,0.62
2022-08-02T05:50:04.186Z,0.63
2022-08-02T05:51:04.058Z,0.64
2022-08-02T05:52:03.844Z,0.65
2022-08-02T05:53:03.801Z,0.65
2022-08-02T05:54:04.269Z,0.66
2022-08-02T05:55:04.001Z,0.67
2022-08-02T05:56:08.375Z,0.66
2022-08-02T05:57:02.922Z,0.69
2022-08-02T05:58:02.907Z,0.72
2022-08-02T05:59:02.974Z,0.72
2022-08-02T06:00:03.680Z,0.71
2022-08-02T06:01:02.897Z,0.70
2022-08-02T06:02:02.198Z,0.68
2022-08-02T06:03:02.422Z,0.70
2022-08-02T06:04:02.339Z,0.68
2022-08-02T06:05:01.871Z,0.69
2022-08-02T06:06:02.009Z,0.65
2022-08-02T06:07:02.185Z,0.66
2022-08-02T06:08:02.320Z,0.69
2022-08-02T06:09:02.460Z,0.72
2022-08-02T06:10:01.935Z,0.75
2022-08-02T06:11:02.601Z,0.78
2022-08-02T06:12:03.033Z,0.75
2022-08-02T06:13:02.722Z,0.80
2022-08-02T06:14:02.266Z,0.77
2022-08-02T06:15:02.379Z,0.75
2022-08-02T06:16:03.184Z,0.73
2022-08-02T06:17:03.796Z,0.85
2022-08-02T06:18:02.790Z,0.90
2022-08-02T06:19:02.936Z,0.84
2022-08-02T06:20:02.476Z,0.78
2022-08-02T06:22:31.512Z,0.78
2022-08-02T06:22:35.751Z,0.80
2022-08-02T06:23:01.975Z,0.66
2022-08-02T06:24:02.382Z,0.51
2022-08-02T06:25:01.945Z,0.53
2022-08-02T06:26:01.985Z,0.64
2022-08-02T06:27:01.895Z,0.84
2022-08-02T06:28:02.002Z,0.99
2022-08-02T06:29:02.094Z,0.94
2022-08-02T06:30:02.181Z,0.86
2022-08-02T06:31:02.045Z,0.86
2022-08-02T06:32:02.094Z,0.97
2022-08-02T06:33:02.193Z,0.91
2022-08-02T06:34:02.962Z,1.06
2022-08-02T06:35:01.903Z,1.07
2022-08-02T06:36:02.744Z,1.10
2022-08-02T06:37:02.231Z,1.13
2022-08-02T06:38:02.511Z,1.14
2022-08-02T06:39:02.544Z,1.16
2022-08-02T06:40:02.293Z,1.17
2022-08-02T06:41:02.403Z,1.20
2022-08-02T06:42:02.250Z,1.21
2022-08-02T06:43:03.087Z,1.24
2022-08-02T06:44:26.141Z,1.27
2022-08-02T06:45:02.650Z,1.28
2022-08-02T06:47:09.339Z,1.30
2022-08-02T06:47:12.536Z,1.19
2022-08-02T06:48:02.756Z,1.25
2022-08-02T06:49:02.615Z,1.32
2022-08-02T06:50:02.907Z,1.25
2022-08-02T06:51:02.797Z,1.31
2022-08-02T06:52:03.271Z,1.26
2022-08-02T06:53:03.068Z,1.33
2022-08-02T06:54:02.903Z,1.28
2022-08-02T06:55:03.285Z,1.31
2022-08-02T06:56:03.082Z,1.34
2022-08-02T06:57:03.457Z,1.39
2022-08-02T06:58:03.126Z,1.36
2022-08-02T06:59:06.050Z,1.32
2022-08-02T07:00:03.437Z,1.38
2022-08-02T07:01:03.437Z,1.34
2022-08-02T07:02:03.103Z,1.29
2022-08-02T07:03:02.845Z,1.26
2022-08-02T07:04:02.686Z,1.27
2022-08-02T07:05:03.152Z,1.33
2022-08-02T07:06:02.695Z,1.36
2022-08-02T07:07:03.250Z,1.39
2022-08-02T07:08:03.004Z,1.40
2022-08-02T07:09:20.140Z,1.40
2022-08-02T07:10:02.904Z,1.35
2022-08-02T07:11:03.212Z,1.47
2022-08-02T07:12:03.639Z,1.51
2022-08-02T07:13:03.279Z,1.48
2022-08-02T07:14:03.614Z,1.45
2022-08-02T07:15:03.896Z,1.40
2022-08-02T07:16:03.760Z,1.45
2022-08-02T07:17:03.133Z,1.40
2022-08-02T07:18:02.881Z,1.41
2022-08-02T07:19:03.431Z,1.46
2022-08-02T07:20:03.176Z,1.38
2022-08-02T07:21:02.868Z,1.40
2022-08-02T07:22:03.565Z,1.50
2022-08-02T07:23:03.423Z,1.49
2022-08-02T07:24:03.366Z,1.51
2022-08-02T07:25:03.188Z,1.47
2022-08-02T07:26:05.408Z,1.44
2022-08-02T07:27:12.473Z,1.49
2022-08-02T07:28:03.613Z,1.50
2022-08-02T07:29:03.768Z,1.53
2022-08-02T07:30:02.947Z,1.55
2022-08-02T07:31:03.728Z,1.57
2022-08-02T07:32:02.824Z,1.58
2022-08-02T07:33:02.644Z,1.61
2022-08-02T07:34:02.763Z,1.56
2022-08-02T07:35:06.577Z,1.62
2022-08-02T07:36:04.731Z,1.66
2022-08-02T07:37:03.318Z,1.66
2022-08-02T07:38:03.083Z,1.65
2022-08-02T07:39:03.178Z,1.65
2022-08-02T07:40:03.578Z,1.74
2022-08-02T07:41:03.381Z,1.76
2022-08-02T07:42:03.549Z,1.78
2022-08-02T07:43:04.361Z,1.80
2022-08-02T07:44:03.015Z,1.78
2022-08-02T07:45:03.105Z,1.76
2022-08-02T07:46:03.579Z,1.74
2022-08-02T07:47:03.175Z,1.73
2022-08-02T07:48:02.594Z,1.71
2022-08-02T07:49:03.177Z,1.72
2022-08-02T07:50:02.988Z,1.76
2022-08-02T07:51:02.890Z,1.72
2022-08-02T07:52:03.306Z,1.66
2022-08-02T07:53:02.890Z,1.69
2022-08-02T07:54:04.138Z,1.71
2022-08-02T07:55:03.137Z,1.79
2022-08-02T07:56:02.903Z,1.80
2022-08-02T07:57:03.725Z,1.85
2022-08-02T07:58:03.713Z,1.89
2022-08-02T07:59:03.658Z,1.94
2022-08-02T08:00:03.374Z,1.96
2022-08-02T08:01:03.789Z,1.99
2022-08-02T08:02:03.187Z,1.99
2022-08-02T08:03:02.923Z,2.01
2022-08-02T08:04:02.730Z,2.03
2022-08-02T08:05:03.134Z,2.03
2022-08-02T08:06:03.399Z,2.04
2022-08-02T08:07:03.780Z,2.04
2022-08-02T08:08:03.543Z,2.07
2022-08-02T08:09:03.887Z,2.06
2022-08-02T08:10:03.403Z,2.08
2022-08-02T08:11:03.844Z,2.08
2022-08-02T08:12:04.328Z,2.04
2022-08-02T08:13:04.114Z,2.01
2022-08-02T08:14:03.812Z,2.07
2022-08-02T08:15:03.890Z,2.05
2022-08-02T08:16:03.686Z,2.06
2022-08-02T08:17:03.298Z,2.01
2022-08-02T08:18:03.300Z,2.01
2022-08-02T08:19:03.685Z,1.89
2022-08-02T08:20:03.486Z,1.71
2022-08-02T08:21:04.331Z,1.83
2022-08-02T08:22:02.969Z,1.89
2022-08-02T08:23:03.416Z,1.98
2022-08-02T08:24:03.076Z,2.17
2022-08-02T08:25:02.930Z,2.12
2022-08-02T08:26:03.206Z,2.03
2022-08-02T08:27:03.692Z,1.91
2022-08-02T08:28:04.063Z,1.83
2022-08-02T08:29:03.623Z,1.76
2022-08-02T08:30:03.751Z,2.14
2022-08-02T08:31:04.073Z,2.33
2022-08-02T08:32:03.810Z,2.21
2022-08-02T08:33:04.380Z,2.31
2022-08-02T08:34:04.016Z,2.35
2022-08-02T08:35:04.026Z,2.36
2022-08-02T08:36:03.815Z,2.36
2022-08-02T08:37:03.302Z,2.36
2022-08-02T08:38:07.419Z,2.35
2022-08-02T08:39:03.536Z,2.36
2022-08-02T08:40:03.322Z,2.36
2022-08-02T08:41:03.819Z,2.37
2022-08-02T08:42:03.484Z,2.41
2022-08-02T08:43:03.953Z,2.39
2022-08-02T08:44:03.878Z,2.34
2022-08-02T08:45:03.687Z,2.33
2022-08-02T08:46:03.426Z,2.25
2022-08-02T08:47:03.076Z,2.26
2022-08-02T08:48:03.452Z,2.25
2022-08-02T08:49:03.304Z,2.07
2022-08-02T08:50:03.734Z,2.15
2022-08-02T08:51:03.556Z,2.33
2022-08-02T08:52:03.365Z,2.33
2022-08-02T08:53:03.838Z,2.35
2022-08-02T08:54:03.591Z,2.36
2022-08-02T08:55:03.334Z,2.32
2022-08-02T08:56:03.762Z,2.35
2022-08-02T08:57:03.510Z,2.35
2022-08-02T08:58:03.880Z,2.34
2022-08-02T08:59:03.412Z,2.38
2022-08-02T09:00:03.955Z,2.39
2022-08-02T09:01:04.039Z,2.41
2022-08-02T09:02:17.215Z,2.38
2022-08-02T09:03:02.716Z,2.35
2022-08-02T09:04:02.970Z,2.46
2022-08-02T09:05:02.735Z,2.46
2022-08-02T09:06:02.830Z,2.49
2022-08-02T09:07:03.277Z,2.51
2022-08-02T09:08:03.625Z,2.55
2022-08-02T09:09:03.355Z,2.52
2022-08-02T09:10:03.340Z,2.30
2022-08-02T09:11:03.487Z,2.57
2022-08-02T09:12:03.030Z,2.52
2022-08-02T09:13:02.824Z,2.56
2022-08-02T09:14:02.918Z,2.56
2022-08-02T09:15:03.453Z,2.48
2022-08-02T09:16:12.633Z,2.46
2022-08-02T09:17:03.078Z,2.46
2022-08-02T09:18:02.860Z,2.23
2022-08-02T09:19:02.919Z,2.21
2022-08-02T09:20:03.431Z,2.22
2022-08-02T09:21:04.541Z,2.33
2022-08-02T09:22:03.576Z,2.50
2022-08-02T09:23:03.402Z,2.62
2022-08-02T09:24:03.996Z,2.57
2022-08-02T09:25:03.623Z,2.50
2022-08-02T09:26:07.423Z,2.21
2022-08-02T09:27:03.634Z,2.20
2022-08-02T09:28:03.469Z,2.12
2022-08-02T09:29:03.812Z,2.23
2022-08-02T09:30:13.528Z,2.48
2022-08-02T09:31:03.373Z,1.68
2022-08-02T09:32:03.200Z,2.44
2022-08-02T09:33:05.644Z,2.55
2022-08-02T09:34:03.170Z,2.52
2022-08-02T09:35:03.073Z,2.02
2022-08-02T09:36:06.548Z,2.25
2022-08-02T09:37:02.968Z,2.33
2022-08-02T09:38:02.785Z,2.40
2022-08-02T09:39:03.156Z,2.22
2022-08-02T09:40:02.625Z,1.84
2022-08-02T09:41:03.234Z,1.36
2022-08-02T09:42:03.434Z,1.96
2022-08-02T09:43:03.281Z,2.00
2022-08-02T09:44:06.181Z,2.05
2022-08-02T09:45:03.605Z,2.22
2022-08-02T09:46:03.435Z,2.25
2022-08-02T09:47:03.809Z,2.37
2022-08-02T09:48:03.635Z,2.40
2022-08-02T09:49:04.204Z,2.31
2022-08-02T09:50:04.093Z,2.12
2022-08-02T09:51:03.618Z,2.13
2022-08-02T09:52:03.229Z,2.13
2022-08-02T09:53:02.929Z,2.12
2022-08-02T09:54:08.869Z,2.13
2022-08-02T09:55:03.220Z,1.92
2022-08-02T09:56:02.891Z,2.01
2022-08-02T09:57:03.417Z,1.95
2022-08-02T09:58:03.297Z,2.13
2022-08-02T09:59:03.143Z,1.95
2022-08-02T10:00:03.680Z,1.88
2022-08-02T10:01:03.705Z,1.89
2022-08-02T10:02:17.949Z,1.99
2022-08-02T10:03:02.553Z,2.16
2022-08-02T10:04:02.424Z,1.75
2022-08-02T10:05:02.641Z,2.16
2022-08-02T10:06:03.081Z,2.44
2022-08-02T10:07:02.937Z,2.52
2022-08-02T10:08:02.819Z,1.62
2022-08-02T10:09:02.659Z,1.71
2022-08-02T10:10:02.505Z,2.24
2022-08-02T10:11:02.563Z,2.33
2022-08-02T10:12:03.564Z,2.26
2022-08-02T10:13:02.812Z,1.97
2022-08-02T10:14:03.254Z,2.02
2022-08-02T10:15:03.046Z,2.31
2022-08-02T10:16:02.876Z,1.36
2022-08-02T10:17:03.346Z,2.64
2022-08-02T10:18:12.980Z,1.28
2022-08-02T10:19:02.887Z,2.31
2022-08-02T10:20:04.979Z,1.38
2022-08-02T10:21:03.323Z,2.36
2022-08-02T10:22:02.910Z,2.18
2022-08-02T10:23:02.704Z,2.19
2022-08-02T10:24:02.449Z,1.07
2022-08-02T10:25:03.023Z,1.02
2022-08-02T10:26:02.711Z,0.99
2022-08-02T10:27:03.082Z,1.01
2022-08-02T10:28:05.617Z,2.29
2022-08-02T10:29:02.639Z,2.50
2022-08-02T10:30:03.093Z,2.46
2022-08-02T10:31:04.818Z,2.41
2022-08-02T10:32:03.451Z,2.55
2022-08-02T10:33:03.507Z,2.63
2022-08-02T10:34:03.189Z,2.67
2022-08-02T10:35:23.308Z,2.70
2022-08-02T10:36:07.029Z,1.16
2022-08-02T10:37:03.650Z,1.14
2022-08-02T10:38:03.580Z,1.09
2022-08-02T10:39:03.352Z,1.08
2022-08-02T10:40:03.486Z,1.21
2022-08-02T10:41:03.205Z,1.05
2022-08-02T10:42:03.371Z,2.16
2022-08-02T10:43:03.123Z,1.53
2022-08-02T10:44:03.486Z,2.54
2022-08-02T10:45:03.288Z,2.51
2022-08-02T10:46:02.948Z,2.36
2022-08-02T10:47:03.434Z,2.28
2022-08-02T10:48:03.273Z,2.27
2022-08-02T10:49:18.547Z,2.16
2022-08-02T10:50:03.375Z,2.20
2022-08-02T10:51:03.039Z,1.82
2022-08-02T10:52:04.027Z,1.73
2022-08-02T10:53:03.682Z,1.40
2022-08-02T10:54:03.479Z,2.17
2022-08-02T10:55:03.544Z,1.94
2022-08-02T10:56:04.047Z,1.87
2022-08-02T10:57:03.647Z,1.36
2022-08-02T10:58:03.381Z,1.29
2022-08-02T10:59:03.703Z,1.84
2022-08-02T11:00:03.715Z,1.96
2022-08-02T11:01:03.655Z,1.73
2022-08-02T11:02:02.542Z,1.73
2022-08-02T11:03:02.873Z,1.47
2022-08-02T11:04:05.062Z,1.21
2022-08-02T11:05:03.155Z,1.17
2022-08-02T11:06:02.975Z,1.19
2022-08-02T11:07:02.753Z,1.29
2022-08-02T11:08:03.358Z,1.25
2022-08-02T11:09:04.400Z,1.22
2022-08-02T11:10:02.894Z,2.12
2022-08-02T11:11:03.480Z,1.30
2022-08-02T11:12:03.251Z,1.22
2022-08-02T11:13:02.360Z,4.22
2022-08-02T11:14:02.783Z,4.06
2022-08-02T11:15:02.279Z,3.82
2022-08-02T11:16:05.352Z,2.24
2022-08-02T11:17:02.943Z,1.47
2022-08-02T11:18:02.719Z,2.30
2022-08-02T11:19:03.172Z,1.43
2022-08-02T11:20:02.980Z,2.11
2022-08-02T11:21:02.774Z,2.21
2022-08-02T11:22:03.168Z,2.15
2022-08-02T11:23:02.918Z,2.08
2022-08-02T11:24:03.741Z,2.01
2022-08-02T11:25:03.401Z,1.89
2022-08-02T11:26:10.713Z,1.84
2022-08-02T11:27:03.020Z,1.77
2022-08-02T11:28:03.560Z,1.83
2022-08-02T11:29:03.222Z,1.91
2022-08-02T11:30:03.050Z,1.96
2022-08-02T11:31:03.685Z,1.93
2022-08-02T11:32:03.475Z,1.93
2022-08-02T11:33:03.315Z,2.03
2022-08-02T11:34:09.169Z,2.15
2022-08-02T11:35:03.602Z,2.12
2022-08-02T11:36:03.851Z,2.16
2022-08-02T11:37:03.691Z,2.30
2022-08-02T11:38:02.564Z,2.23
2022-08-02T11:39:03.048Z,2.20
2022-08-02T11:40:02.880Z,2.21
2022-08-02T11:41:05.990Z,2.16
2022-08-02T11:42:02.537Z,2.19
2022-08-02T11:43:03.446Z,1.96
2022-08-02T11:44:03.340Z,1.77
2022-08-02T11:45:03.845Z,1.28
2022-08-02T11:46:03.686Z,2.13
2022-08-02T11:47:03.553Z,2.10
2022-08-02T11:48:03.942Z,2.09
2022-08-02T11:49:03.815Z,2.01
2022-08-02T11:50:04.160Z,1.95
2022-08-02T11:51:03.693Z,2.02
2022-08-02T11:52:04.121Z,2.00
2022-08-02T11:53:03.283Z,2.00
2022-08-02T11:54:03.104Z,2.04
2022-08-02T11:55:03.607Z,1.06
2022-08-02T11:56:03.429Z,1.91
2022-08-02T11:57:03.152Z,1.08
2022-08-02T11:58:05.574Z,1.26
2022-08-02T11:59:03.174Z,2.35
2022-08-02T12:00:03.270Z,2.34
2022-08-02T12:01:03.304Z,1.33
2022-08-02T12:02:03.132Z,1.15
2022-08-02T12:03:03.072Z,2.28
2022-08-02T12:04:03.651Z,1.26
2022-08-02T12:05:03.509Z,2.27
2022-08-02T12:06:06.597Z,2.18
2022-08-02T12:07:03.582Z,2.10
2022-08-02T12:08:04.294Z,2.01
2022-08-02T12:09:03.822Z,2.06
2022-08-02T12:10:03.685Z,2.06
2022-08-02T12:11:03.729Z,2.15
2022-08-02T12:12:04.299Z,2.12
2022-08-02T12:13:03.285Z,2.14
2022-08-02T12:14:03.139Z,2.17
2022-08-02T12:15:03.475Z,2.14
2022-08-02T12:16:07.170Z,2.01
2022-08-02T12:17:03.421Z,2.00
2022-08-02T12:18:03.451Z,2.02
2022-08-02T12:19:03.265Z,1.84
2022-08-02T12:20:03.096Z,1.36
2022-08-02T12:21:03.532Z,2.13
2022-08-02T12:22:03.345Z,2.14
2022-08-02T12:23:03.171Z,3.72
2022-08-02T12:24:03.716Z,1.21
2022-08-02T12:25:03.539Z,2.41
2022-08-02T12:26:03.235Z,1.18
2022-08-02T12:27:03.657Z,1.22
2022-08-02T12:28:03.426Z,1.30
2022-08-02T12:29:03.953Z,2.17
2022-08-02T12:30:03.799Z,2.04
2022-08-02T12:31:03.666Z,3.23
2022-08-02T12:32:03.479Z,2.76
2022-08-02T12:33:04.566Z,2.47
2022-08-02T12:34:04.380Z,2.23
2022-08-02T12:35:04.213Z,2.18
2022-08-02T12:36:03.957Z,2.15
2022-08-02T12:37:04.566Z,1.40
2022-08-02T12:38:03.398Z,2.13
2022-08-02T12:39:03.754Z,1.47
2022-08-02T12:40:03.545Z,1.95
2022-08-02T12:41:04.014Z,1.90
2022-08-02T12:42:03.837Z,1.81
2022-08-02T12:43:05.219Z,1.83
2022-08-02T12:44:03.771Z,1.67
2022-08-02T12:45:03.543Z,1.38
2022-08-02T12:46:03.581Z,1.40
2022-08-02T12:47:04.133Z,2.07
2022-08-02T12:48:03.738Z,2.11
2022-08-02T12:49:18.011Z,1.98
2022-08-02T12:50:04.207Z,1.95
2022-08-02T12:51:03.924Z,1.95
2022-08-02T12:52:06.828Z,1.82
2022-08-02T12:53:03.752Z,1.50
2022-08-02T12:54:03.487Z,1.61
2022-08-02T12:55:03.517Z,1.85
2022-08-02T12:56:04.224Z,1.83
2022-08-02T12:57:03.998Z,1.82
2022-08-02T12:58:03.926Z,1.80
2022-08-02T12:59:03.640Z,1.81
2022-08-02T13:00:04.192Z,1.81
2022-08-02T13:01:04.133Z,1.81
2022-08-02T13:02:03.714Z,1.84
2022-08-02T13:03:04.575Z,1.81
2022-08-02T13:04:07.702Z,1.84
2022-08-02T13:05:03.349Z,1.81
2022-08-02T13:06:17.012Z,1.83
2022-08-02T13:07:03.554Z,1.81
2022-08-02T13:08:03.200Z,1.80
2022-08-02T13:09:03.045Z,1.75
2022-08-02T13:10:03.867Z,1.71
2022-08-02T13:11:02.954Z,1.71
2022-08-02T13:12:03.405Z,1.68
2022-08-02T13:13:03.284Z,1.69
2022-08-02T13:14:02.976Z,1.61
2022-08-02T13:15:03.070Z,1.63
2022-08-02T13:16:03.650Z,1.59
2022-08-02T13:17:03.175Z,1.50
2022-08-02T13:18:03.894Z,1.52